createdAt,value
2023-03-31T00:00:53.714Z,98573.20
2023-03-31T00:06:20.328Z,98573.02
2023-03-31T00:11:46.801Z,98561.66
2023-03-31T00:17:11.886Z,98566.46
2023-03-31T00:22:38.847Z,98558.85
2023-03-31T00:28:02.989Z,98554.85
2023-03-31T00:33:27.566Z,98554.35
2023-03-31T00:38:51.874Z,98546.45
2023-03-31T00:44:23.317Z,98545.64
2023-03-31T00:49:51.115Z,98541.15
2023-03-31T00:55:24.678Z,98532.16
2023-03-31T01:00:53.255Z,98532.88
2023-03-31T01:06:20.188Z,98530.85
2023-03-31T01:11:46.719Z,98523.48
2023-03-31T01:17:12.432Z,98519.31
2023-03-31T01:23:00.789Z,98513.86
2023-03-31T01:28:37.196Z,98506.79
2023-03-31T01:34:39.176Z,98497.98
2023-03-31T01:40:24.177Z,98490.76
2023-03-31T01:46:10.108Z,98481.50
2023-03-31T01:51:42.116Z,98475.57
2023-03-31T01:57:17.740Z,98473.59
2023-03-31T02:02:44.768Z,98465.13
2023-03-31T02:08:15.426Z,98456.73
2023-03-31T02:13:44.812Z,98443.82
2023-03-31T02:19:11.038Z,98438.78
2023-03-31T02:24:39.300Z,98427.81
2023-03-31T02:30:05.107Z,98427.42
2023-03-31T02:35:29.181Z,98419.80
2023-03-31T02:40:54.772Z,98410.27
2023-03-31T02:46:18.806Z,98403.01
2023-03-31T02:51:58.223Z,98398.02
2023-03-31T02:57:54.576Z,98391.94
2023-03-31T03:03:39.724Z,98394.27
2023-03-31T03:09:22.912Z,98391.02
2023-03-31T03:15:01.419Z,98392.05
2023-03-31T03:20:25.118Z,98391.48
2023-03-31T03:25:49.398Z,98386.10
2023-03-31T03:31:14.412Z,98379.18
2023-03-31T03:36:39.900Z,98371.39
2023-03-31T03:42:04.801Z,98363.10
2023-03-31T03:47:29.665Z,98357.13
2023-03-31T03:52:53.534Z,98347.36
2023-03-31T03:58:20.264Z,98344.92
2023-03-31T04:03:46.435Z,98337.45
2023-03-31T04:09:11.729Z,98337.90
2023-03-31T04:14:36.033Z,98338.21
2023-03-31T04:20:09.558Z,98330.35
2023-03-31T04:25:33.748Z,98320.56
2023-03-31T04:30:59.262Z,98322.74
2023-03-31T04:36:23.787Z,98320.81
2023-03-31T04:41:48.499Z,98312.42
2023-03-31T04:47:12.152Z,98306.45
2023-03-31T04:52:36.682Z,98305.40
2023-03-31T04:58:00.828Z,98295.79
2023-03-31T05:03:24.920Z,98295.24
2023-03-31T05:08:50.367Z,98291.48
2023-03-31T05:14:14.638Z,98291.73
2023-03-31T05:19:38.673Z,98286.98
2023-03-31T05:25:03.031Z,98277.02
2023-03-31T05:30:27.283Z,98269.79
2023-03-31T05:35:51.732Z,98265.23
2023-03-31T05:41:17.496Z,98259.23
2023-03-31T05:46:42.496Z,98255.86
2023-03-31T05:52:08.381Z,98248.45
2023-03-31T05:57:32.608Z,98237.93
2023-03-31T06:02:57.053Z,98235.66
2023-03-31T06:08:21.003Z,98233.90
2023-03-31T06:13:47.251Z,98232.39
2023-03-31T06:19:11.505Z,98231.27
2023-03-31T06:24:35.362Z,98229.64
2023-03-31T06:29:59.143Z,98228.14
2023-03-31T06:35:23.272Z,98225.08
2023-03-31T06:40:47.612Z,98217.83
2023-03-31T06:46:13.046Z,98207.17
2023-03-31T06:51:37.921Z,98204.58
2023-03-31T06:57:02.011Z,98206.48
2023-03-31T07:02:26.733Z,98199.96
2023-03-31T07:07:51.140Z,98197.77
2023-03-31T07:13:16.865Z,98188.27
2023-03-31T07:18:42.778Z,98180.91
2023-03-31T07:24:07.509Z,98177.14
2023-03-31T07:29:31.884Z,98167.23
2023-03-31T07:34:56.308Z,98153.02
2023-03-31T07:40:26.581Z,98148.21
2023-03-31T07:45:51.172Z,98152.54
2023-03-31T07:51:19.558Z,98151.00
2023-03-31T07:56:44.269Z,98146.89
2023-03-31T08:02:11.164Z,98143.73
2023-03-31T08:07:37.149Z,98137.33
2023-03-31T08:13:01.589Z,98130.70
2023-03-31T08:18:26.059Z,98118.52
2023-03-31T08:23:54.737Z,98106.05
2023-03-31T08:29:19.471Z,98100.21
2023-03-31T08:34:44.141Z,98085.73
2023-03-31T08:40:14.741Z,98079.98
2023-03-31T08:45:47.179Z,98082.23
2023-03-31T08:51:23.373Z,98071.95
2023-03-31T08:56:51.695Z,98061.55
2023-03-31T09:02:42.478Z,98055.64
2023-03-31T09:08:12.142Z,98049.77
2023-03-31T09:14:05.457Z,98044.20
2023-03-31T09:19:56.547Z,98040.09
2023-03-31T09:25:26.639Z,98026.99
2023-03-31T09:30:52.574Z,98018.65
2023-03-31T09:36:20.419Z,98014.98
2023-03-31T09:41:50.888Z,98010.08
2023-03-31T09:47:42.973Z,98003.98
2023-03-31T09:53:15.286Z,98008.84
2023-03-31T09:58:44.734Z,98008.02
2023-03-31T10:04:10.120Z,97998.95
2023-03-31T10:09:38.693Z,97985.86
2023-03-31T10:15:34.351Z,97974.63
2023-03-31T10:20:58.955Z,97957.52
2023-03-31T10:26:27.136Z,97947.11
2023-03-31T10:31:52.052Z,97930.94
2023-03-31T10:37:21.040Z,97928.45
2023-03-31T10:42:50.337Z,97923.63
2023-03-31T10:48:35.328Z,97914.76
2023-03-31T10:54:03.769Z,97914.15
2023-03-31T10:59:59.855Z,97905.06
2023-03-31T11:05:31.422Z,97894.86
2023-03-31T11:10:59.666Z,97883.51
2023-03-31T11:16:50.656Z,97882.27
2023-03-31T11:22:53.122Z,97879.20
2023-03-31T11:28:35.633Z,97866.96
2023-03-31T11:34:45.424Z,97861.47
2023-03-31T11:40:09.862Z,97861.57
2023-03-31T11:45:40.990Z,97859.85
2023-03-31T11:51:12.386Z,97854.46
2023-03-31T11:56:40.892Z,97839.73
2023-03-31T12:02:18.509Z,97831.81
2023-03-31T12:08:01.674Z,97819.52
2023-03-31T12:13:56.704Z,97813.13
2023-03-31T12:19:23.156Z,97802.41
2023-03-31T12:24:47.778Z,97802.55
2023-03-31T12:30:17.734Z,97796.48
2023-03-31T12:36:21.791Z,97785.13
2023-03-31T12:42:11.848Z,97778.11
2023-03-31T12:47:41.760Z,97766.66
2023-03-31T12:53:36.296Z,97760.11
2023-03-31T12:59:18.858Z,97749.24
2023-03-31T13:04:43.720Z,97743.71
2023-03-31T13:10:22.000Z,97731.39
2023-03-31T13:15:56.227Z,97734.01
2023-03-31T13:21:20.721Z,97730.45
2023-03-31T13:26:47.968Z,97722.39
2023-03-31T13:32:18.647Z,97713.80
2023-03-31T13:38:07.561Z,97699.23
2023-03-31T13:44:05.341Z,97688.13
2023-03-31T13:49:56.959Z,97676.83
2023-03-31T13:55:35.153Z,97664.23
2023-03-31T14:01:36.360Z,97654.54
2023-03-31T14:07:17.088Z,97650.02
2023-03-31T14:12:42.193Z,97651.05
2023-03-31T14:18:08.201Z,97644.02
2023-03-31T14:24:11.577Z,97639.20
2023-03-31T14:29:47.600Z,97637.59
2023-03-31T14:35:24.471Z,97630.98
2023-03-31T14:40:54.182Z,97629.67
2023-03-31T14:46:22.495Z,97627.62
2023-03-31T14:51:47.134Z,97624.41
2023-03-31T14:57:13.128Z,97618.85
2023-03-31T15:02:41.424Z,97612.59
2023-03-31T15:08:18.717Z,97604.19
2023-03-31T15:14:01.011Z,97598.99
2023-03-31T15:19:35.325Z,97594.00
2023-03-31T15:25:02.566Z,97585.52
2023-03-31T15:30:29.209Z,97577.37
2023-03-31T15:35:53.781Z,97569.63
2023-03-31T15:41:29.011Z,97561.44
2023-03-31T15:47:02.301Z,97558.66
2023-03-31T15:52:36.702Z,97553.64
2023-03-31T15:58:02.254Z,97547.33
2023-03-31T16:03:38.864Z,97544.25
2023-03-31T16:09:24.808Z,97539.32
2023-03-31T16:14:55.654Z,97533.59
2023-03-31T16:20:22.316Z,97529.34
2023-03-31T16:25:47.445Z,97518.66
2023-03-31T16:31:34.850Z,97514.53
2023-03-31T16:36:59.905Z,97502.54
2023-03-31T16:42:25.162Z,97504.88
2023-03-31T16:47:53.082Z,97488.63
2023-03-31T16:53:22.513Z,97493.40
2023-03-31T16:58:46.581Z,97489.50
2023-03-31T17:04:11.339Z,97489.39
2023-03-31T17:09:35.851Z,97497.91
2023-03-31T17:15:00.893Z,97505.73
2023-03-31T17:20:28.407Z,97507.48
2023-03-31T17:25:58.499Z,97512.36
2023-03-31T17:31:28.078Z,97519.16
2023-03-31T17:36:55.370Z,97525.16
2023-03-31T17:42:20.904Z,97525.59
2023-03-31T17:47:49.204Z,97526.35
2023-03-31T17:53:17.690Z,97534.16
2023-03-31T17:58:42.829Z,97553.02
2023-03-31T18:04:07.825Z,97559.27
2023-03-31T18:09:31.875Z,97552.75
2023-03-31T18:14:57.059Z,97557.18
2023-03-31T18:20:21.325Z,97567.09
2023-03-31T18:25:49.070Z,97577.12
2023-03-31T18:31:15.556Z,97578.41
2023-03-31T18:36:40.424Z,97568.91
2023-03-31T18:42:07.249Z,97577.23
2023-03-31T18:47:31.334Z,97585.21
2023-03-31T18:52:55.711Z,97589.16
2023-03-31T18:58:21.556Z,97595.56
2023-03-31T19:03:47.609Z,97602.34
2023-03-31T19:09:12.256Z,97613.45
2023-03-31T19:14:36.870Z,97620.62
2023-03-31T19:20:00.963Z,97624.98
2023-03-31T19:25:25.032Z,97620.13
2023-03-31T19:30:56.822Z,97616.80
2023-03-31T19:36:21.639Z,97620.89
2023-03-31T19:41:48.853Z,97619.56
2023-03-31T19:47:13.391Z,97616.98
2023-03-31T19:52:38.228Z,97617.47
2023-03-31T19:58:02.709Z,97613.39
2023-03-31T20:03:28.724Z,97605.22
2023-03-31T20:08:59.747Z,97601.76
2023-03-31T20:14:26.551Z,97600.58
2023-03-31T20:44:57.371Z,97592.48
2023-03-31T20:50:23.261Z,97596.08
2023-03-31T20:55:47.325Z,97602.66
2023-03-31T21:01:12.811Z,97596.10
2023-03-31T21:06:42.724Z,97594.88
2023-03-31T21:12:07.510Z,97595.52
2023-03-31T21:17:32.129Z,97599.13
2023-03-31T21:22:57.659Z,97600.84
2023-03-31T21:28:25.584Z,97602.13
2023-03-31T21:33:49.946Z,97596.56
2023-03-31T21:39:13.975Z,97595.11
2023-03-31T21:44:38.172Z,97598.52
2023-03-31T21:50:03.182Z,97604.70
2023-03-31T21:55:27.782Z,97609.70
2023-03-31T22:00:52.445Z,97613.90
2023-03-31T22:06:17.139Z,97611.96
2023-03-31T22:11:41.214Z,97609.14
2023-03-31T22:17:05.680Z,97610.17
2023-03-31T22:22:30.537Z,97612.10
2023-03-31T22:27:55.057Z,97608.16
2023-03-31T22:33:19.446Z,97606.22
2023-03-31T22:38:43.161Z,97608.83
2023-03-31T22:44:07.550Z,97609.80
2023-03-31T22:49:31.471Z,97607.95
2023-03-31T22:54:56.508Z,97614.51
2023-03-31T23:00:21.256Z,97618.77
2023-03-31T23:05:45.374Z,97620.11
2023-03-31T23:11:12.764Z,97616.55
2023-03-31T23:16:37.081Z,97616.76
2023-03-31T23:22:02.817Z,97617.64
2023-03-31T23:27:27.337Z,97620.64
2023-03-31T23:32:53.002Z,97618.11
2023-03-31T23:38:17.543Z,97615.63
2023-03-31T23:43:41.591Z,97609.89
2023-03-31T23:49:08.013Z,97608.33
2023-03-31T23:54:31.979Z,97599.23
2023-03-31T23:59:56.668Z,97598.09
